Time;durP1;ratioP1;P1;durP2;ratioP2;P2;SDS_P1;SDS_P2;PMS_P1;PMS_P2;Temp;Humidity;BMP_temperature;BMP_pressure;BME280_temperature;BME280_humidity;BME280_pressure;Samples;Min_cycle;Max_cycle;Signal;HPM_P1;HPM_P2
2023/02/22 00:01:07;;;;;;;54.57;28.27;;;8.20;99.90;;;;;;5037725;28;20477;-77
2023/02/22 00:03:33;;;;;;;59.87;25.87;;;8.10;99.90;;;;;;5034699;28;20598;-78
2023/02/22 00:06:03;;;;;;;60.00;27.07;;;8.20;99.90;;;;;;5034867;28;20462;-78
2023/02/22 00:08:31;;;;;;;52.97;24.57;;;8.40;99.90;;;;;;5036335;28;20489;-80
2023/02/22 00:10:58;;;;;;;60.20;26.23;;;8.30;99.90;;;;;;5038050;28;20433;-78
2023/02/22 00:13:27;;;;;;;65.17;27.93;;;8.20;99.90;;;;;;5036851;28;20546;-77
2023/02/22 00:15:54;;;;;;;56.73;24.13;;;8.10;99.90;;;;;;5031156;28;20433;-77
2023/02/22 00:18:20;;;;;;;52.03;25.00;;;8.10;99.90;;;;;;5038623;28;20471;-78
2023/02/22 00:20:45;;;;;;;63.27;23.27;;;8.20;99.90;;;;;;5037025;28;20440;-79
2023/02/22 00:23:20;;;;;;;65.93;25.60;;;8.10;99.90;;;;;;5036650;28;20476;-78
2023/02/22 00:25:47;;;;;;;65.03;23.47;;;8.10;99.90;;;;;;5038336;28;20185;-79
2023/02/22 00:28:14;;;;;;;72.43;24.93;;;8.00;99.90;;;;;;5036595;28;20445;-78
2023/02/22 00:30:43;;;;;;;58.43;24.53;;;8.00;99.90;;;;;;5020399;28;20421;-79
2023/02/22 00:33:13;;;;;;;53.73;25.33;;;8.20;99.90;;;;;;5038331;28;20441;-78
2023/02/22 00:35:39;;;;;;;64.30;27.30;;;7.90;99.90;;;;;;5038705;28;20425;-79
2023/02/22 00:38:06;;;;;;;58.70;26.30;;;8.00;99.90;;;;;;5039008;28;20421;-79
2023/02/22 00:40:34;;;;;;;62.57;25.40;;;8.00;99.90;;;;;;5044688;28;20500;-79
2023/02/22 00:43:04;;;;;;;54.63;24.80;;;8.00;99.90;;;;;;5037113;28;20465;-79
2023/02/22 00:45:32;;;;;;;91.27;26.10;;;7.90;99.90;;;;;;5038615;28;20413;-79
2023/02/22 00:47:58;;;;;;;83.23;23.50;;;8.00;99.90;;;;;;5038469;28;20429;-79
2023/02/22 00:50:26;;;;;;;119.07;27.07;;;7.90;99.90;;;;;;5038014;28;21182;-79
2023/02/22 00:52:52;;;;;;;78.83;25.93;;;7.80;99.90;;;;;;5030596;28;20591;-79
2023/02/22 00:55:21;;;;;;;61.53;25.13;;;8.00;99.90;;;;;;5037542;28;20425;-77
2023/02/22 00:57:48;;;;;;;56.93;24.07;;;7.80;99.90;;;;;;5038516;28;20436;-77
2023/02/22 01:00:18;;;;;;;56.77;23.13;;;7.90;99.90;;;;;;5037561;28;20682;-79
2023/02/22 01:02:44;;;;;;;71.53;25.87;;;7.80;99.90;;;;;;5037532;28;20579;-79
2023/02/22 01:05:12;;;;;;;89.50;24.13;;;7.80;99.90;;;;;;5020902;28;20413;-77
2023/02/22 01:07:39;;;;;;;70.00;23.07;;;7.90;99.90;;;;;;5036512;28;20478;-79
2023/02/22 01:10:07;;;;;;;51.77;22.30;;;7.90;99.90;;;;;;5038653;28;20531;-79
2023/02/22 01:12:33;;;;;;;109.57;23.20;;;7.90;99.90;;;;;;5038244;28;20476;-77
2023/02/22 01:15:00;;;;;;;110.27;24.03;;;7.90;99.90;;;;;;5037554;28;20425;-79
2023/02/22 01:17:26;;;;;;;51.73;20.83;;;7.70;99.90;;;;;;5036974;28;20437;-79
2023/02/22 01:19:52;;;;;;;79.03;23.37;;;7.70;99.90;;;;;;5036668;28;20421;-79
2023/02/22 01:22:20;;;;;;;43.90;20.10;;;7.80;99.90;;;;;;5036672;28;20538;-78
2023/02/22 01:24:47;;;;;;;73.47;22.20;;;7.70;99.90;;;;;;5036516;28;20429;-78
2023/02/22 01:27:13;;;;;;;62.47;22.33;;;7.80;99.90;;;;;;5037635;28;20822;-77
2023/02/22 01:29:40;;;;;;;56.87;21.57;;;7.80;99.90;;;;;;5036271;28;20413;-79
2023/02/22 01:32:05;;;;;;;66.20;22.00;;;7.80;99.90;;;;;;5036358;28;20456;-78
2023/02/22 01:34:31;;;;;;;61.20;20.83;;;7.70;99.90;;;;;;5020323;28;20413;-79
2023/02/22 01:36:58;;;;;;;54.40;21.50;;;7.80;99.90;;;;;;5044100;28;20182;-76
2023/02/22 01:39:24;;;;;;;72.93;21.13;;;7.60;99.90;;;;;;5043869;28;20417;-77
2023/02/22 01:41:52;;;;;;;83.93;22.17;;;7.70;99.90;;;;;;5034192;28;20496;-77
2023/02/22 01:44:21;;;;;;;96.50;22.43;;;7.70;99.90;;;;;;5033305;28;20537;-77
2023/02/22 01:46:47;;;;;;;73.70;21.30;;;7.90;99.90;;;;;;5032843;28;20426;-78
2023/02/22 01:49:14;;;;;;;47.30;20.43;;;7.90;99.90;;;;;;5032956;28;20421;-78
2023/02/22 01:51:49;;;;;;;49.33;19.70;;;7.80;99.90;;;;;;5032856;28;20320;-78
2023/02/22 01:54:20;;;;;;;44.83;17.87;;;7.90;99.90;;;;;;5034593;28;20738;-79
2023/02/22 01:56:53;;;;;;;75.43;19.83;;;7.60;99.90;;;;;;5034473;28;20420;-78
2023/02/22 01:59:20;;;;;;;94.63;20.83;;;7.80;99.90;;;;;;5034273;28;20413;-78
2023/02/22 02:01:46;;;;;;;77.10;19.80;;;7.70;99.90;;;;;;5033504;28;20461;-78
2023/02/22 02:04:18;;;;;;;104.43;20.70;;;7.70;99.90;;;;;;5016364;28;20409;-78
2023/02/22 02:06:44;;;;;;;49.17;17.87;;;7.60;99.90;;;;;;5034985;28;20472;-78
2023/02/22 02:09:27;;;;;;;79.90;20.20;;;7.70;99.90;;;;;;5033042;28;20414;-77
2023/02/22 02:11:53;;;;;;;59.93;19.70;;;7.80;99.90;;;;;;5032820;28;20547;-77
2023/02/22 02:14:18;;;;;;;66.63;18.47;;;7.60;99.90;;;;;;5016370;28;20458;-78
2023/02/22 02:16:48;;;;;;;57.37;17.60;;;7.70;99.90;;;;;;5016208;28;20251;-78
2023/02/22 02:19:29;;;;;;;101.17;18.77;;;7.50;99.90;;;;;;5033402;28;20247;-79
2023/02/22 02:22:07;;;;;;;67.27;19.23;;;7.70;99.90;;;;;;5034408;28;20891;-78
2023/02/22 02:25:04;;;;;;;56.23;19.37;;;7.70;99.90;;;;;;5033938;28;20416;-77
2023/02/22 02:27:54;;;;;;;130.23;21.30;;;7.60;99.90;;;;;;5033412;28;20413;-78
2023/02/22 02:30:38;;;;;;;63.47;18.30;;;7.80;99.90;;;;;;5034588;28;20456;-79
2023/02/22 02:33:25;;;;;;;52.50;19.30;;;7.60;99.90;;;;;;5033140;28;20852;-76
2023/02/22 02:36:00;;;;;;;71.53;21.67;;;7.70;99.90;;;;;;5031968;28;20921;-78
2023/02/22 02:38:43;;;;;;;128.77;22.00;;;7.70;99.90;;;;;;5016676;28;20420;-79
2023/02/22 02:41:31;;;;;;;80.23;19.60;;;7.80;99.90;;;;;;5033303;28;20433;-77
2023/02/22 02:44:12;;;;;;;90.30;19.57;;;7.70;99.90;;;;;;5034729;28;20428;-79
2023/02/22 02:46:50;;;;;;;64.67;19.17;;;7.70;99.90;;;;;;5038882;28;20500;-77
2023/02/22 02:49:21;;;;;;;105.87;19.70;;;7.70;99.90;;;;;;5037988;28;20471;-79
2023/02/22 02:51:53;;;;;;;58.53;18.30;;;7.70;99.90;;;;;;5039129;28;20494;-79
2023/02/22 02:54:20;;;;;;;129.07;19.53;;;7.70;99.90;;;;;;5038958;28;20487;-78
2023/02/22 02:56:47;;;;;;;62.27;17.87;;;7.70;99.90;;;;;;5039252;28;20496;-78
2023/02/22 02:59:33;;;;;;;93.53;19.77;;;7.60;99.90;;;;;;5038854;28;20773;-78
2023/02/22 03:02:33;;;;;;;69.33;17.50;;;7.70;99.90;;;;;;5037849;28;20848;-79
2023/02/22 03:05:10;;;;;;;75.77;16.73;;;7.60;99.90;;;;;;5038914;28;20435;-79
2023/02/22 03:07:37;;;;;;;96.70;20.20;;;7.80;99.90;;;;;;5038298;28;20440;-79
2023/02/22 03:10:40;;;;;;;82.13;16.30;;;7.60;99.90;;;;;;5037316;28;20964;-80
2023/02/22 03:13:18;;;;;;;58.90;16.67;;;7.70;99.90;;;;;;5036907;28;21043;-79
2023/02/22 03:15:46;;;;;;;108.23;19.97;;;7.50;99.90;;;;;;5037801;28;20446;-77
2023/02/22 03:18:21;;;;;;;86.17;17.40;;;7.60;99.90;;;;;;5038481;28;20427;-79
2023/02/22 03:21:05;;;;;;;54.50;17.97;;;7.60;99.90;;;;;;5037690;28;20419;-79
2023/02/22 03:23:55;;;;;;;110.37;20.33;;;7.80;99.90;;;;;;5038465;28;20460;-77
2023/02/22 03:26:26;;;;;;;37.60;16.87;;;7.20;99.90;;;;;;5038089;28;20504;-78
2023/02/22 03:28:54;;;;;;;73.70;17.00;;;7.70;99.90;;;;;;5039041;28;20491;-80
2023/02/22 03:31:30;;;;;;;83.23;17.47;;;7.40;99.90;;;;;;5038358;28;20405;-80
2023/02/22 03:34:05;;;;;;;56.73;15.03;;;7.40;99.90;;;;;;5036869;28;20409;-79
2023/02/22 03:36:37;;;;;;;55.60;15.87;;;7.40;99.90;;;;;;5037061;28;20417;-80
2023/02/22 03:39:06;;;;;;;48.37;15.37;;;7.30;99.90;;;;;;5038149;28;20419;-79
2023/02/22 03:41:37;;;;;;;43.53;14.60;;;7.30;99.90;;;;;;5038211;28;20414;-78
2023/02/22 03:44:14;;;;;;;69.13;16.37;;;7.30;99.90;;;;;;5036460;28;20418;-79
2023/02/22 03:46:42;;;;;;;41.77;14.43;;;7.40;99.90;;;;;;5038635;28;20435;-77
2023/02/22 03:49:19;;;;;;;29.30;13.33;;;7.10;99.90;;;;;;5038245;28;20855;-79
2023/02/22 03:51:45;;;;;;;38.70;12.93;;;7.20;99.90;;;;;;5037247;28;20425;-78
2023/02/22 03:54:15;;;;;;;48.57;13.00;;;7.20;99.90;;;;;;5037489;28;20409;-79
2023/02/22 03:57:16;;;;;;;29.90;12.53;;;7.10;99.90;;;;;;5037082;28;20778;-77
2023/02/22 03:59:42;;;;;;;23.73;11.13;;;7.20;99.90;;;;;;5029082;28;20420;-79
2023/02/22 04:02:08;;;;;;;30.50;11.60;;;7.00;99.90;;;;;;5038146;28;20465;-79
2023/02/22 04:04:33;;;;;;;32.70;11.40;;;7.00;99.90;;;;;;5037896;28;20536;-79
2023/02/22 04:07:00;;;;;;;39.03;12.03;;;7.00;99.90;;;;;;5038862;28;20182;-77
2023/02/22 04:09:25;;;;;;;50.70;12.40;;;7.00;99.90;;;;;;5037256;28;20179;-79
2023/02/22 04:11:51;;;;;;;50.70;11.13;;;7.00;99.90;;;;;;5038625;28;20452;-78
2023/02/22 04:14:16;;;;;;;50.70;12.33;;;7.00;99.90;;;;;;5036933;28;20216;-79
2023/02/22 04:16:42;;;;;;;26.33;10.27;;;6.80;99.90;;;;;;5038073;28;20182;-79
2023/02/22 04:19:08;;;;;;;51.37;11.70;;;6.70;99.90;;;;;;5037690;28;20181;-79
2023/02/22 04:21:33;;;;;;;29.37;10.20;;;6.70;99.90;;;;;;5035780;28;20175;-78
2023/02/22 04:23:59;;;;;;;32.67;11.60;;;6.80;99.90;;;;;;5037311;28;20183;-78
2023/02/22 04:26:25;;;;;;;37.50;11.67;;;7.00;99.90;;;;;;5019401;28;20186;-78
2023/02/22 04:28:50;;;;;;;36.53;10.37;;;6.80;99.90;;;;;;5036941;28;20178;-79
2023/02/22 04:31:16;;;;;;;41.40;11.77;;;6.80;99.90;;;;;;5037361;28;20186;-79
2023/02/22 04:33:42;;;;;;;25.47;10.13;;;6.80;99.90;;;;;;5035886;28;20206;-79
2023/02/22 04:36:09;;;;;;;59.13;12.03;;;6.80;99.90;;;;;;5019544;28;20445;-78
2023/02/22 04:38:35;;;;;;;40.27;10.10;;;6.70;99.90;;;;;;5036194;28;20182;-78
2023/02/22 04:41:01;;;;;;;30.50;11.00;;;6.60;99.90;;;;;;5036449;28;20875;-79
2023/02/22 04:43:26;;;;;;;60.43;11.37;;;6.40;99.90;;;;;;5037156;28;20494;-78
2023/02/22 04:45:52;;;;;;;86.80;12.97;;;6.60;99.90;;;;;;5037413;28;20197;-79
2023/02/22 04:48:18;;;;;;;75.53;11.40;;;6.70;99.90;;;;;;5036106;28;20682;-79
2023/02/22 04:50:43;;;;;;;65.83;12.30;;;6.50;99.90;;;;;;5033856;28;20974;-78
2023/02/22 04:53:09;;;;;;;25.70;9.07;;;6.60;99.90;;;;;;5032647;28;20206;-77
2023/02/22 04:55:35;;;;;;;27.90;9.97;;;6.60;99.90;;;;;;5035210;28;20189;-79
2023/02/22 04:58:01;;;;;;;26.87;9.50;;;6.40;99.90;;;;;;5035324;28;20405;-78
2023/02/22 05:00:27;;;;;;;25.17;9.27;;;6.60;99.90;;;;;;5037360;28;20186;-77
2023/02/22 05:02:53;;;;;;;16.43;8.30;;;6.50;99.90;;;;;;5036317;28;20552;-78
2023/02/22 05:05:20;;;;;;;34.57;11.00;;;6.00;99.90;;;;;;5036270;28;20550;-79
2023/02/22 05:07:47;;;;;;;21.40;9.27;;;6.40;99.90;;;;;;5035866;28;20246;-79
2023/02/22 05:10:13;;;;;;;31.90;9.27;;;6.60;99.90;;;;;;5019850;28;20424;-79
2023/02/22 05:12:38;;;;;;;44.80;10.10;;;6.30;99.90;;;;;;5036483;28;20461;-79
2023/02/22 05:15:06;;;;;;;40.33;9.30;;;6.20;99.90;;;;;;5036722;28;20182;-79
2023/02/22 05:17:31;;;;;;;44.93;9.33;;;6.30;99.90;;;;;;5036307;28;20269;-79
2023/02/22 05:19:57;;;;;;;21.37;8.70;;;6.20;99.90;;;;;;5037089;28;20409;-76
2023/02/22 05:22:23;;;;;;;47.43;9.63;;;6.40;99.90;;;;;;5037409;28;20222;-79
2023/02/22 05:24:51;;;;;;;39.73;8.97;;;6.30;99.90;;;;;;5019844;28;20277;-79
2023/02/22 05:27:17;;;;;;;24.70;7.83;;;6.30;99.90;;;;;;5037722;28;20179;-79
2023/02/22 05:29:43;;;;;;;42.37;9.17;;;6.10;99.90;;;;;;5036882;28;20414;-79
2023/02/22 05:32:08;;;;;;;22.53;8.80;;;6.10;99.90;;;;;;5038632;28;20447;-79
2023/02/22 05:34:34;;;;;;;18.53;7.97;;;6.30;99.90;;;;;;5020603;28;20189;-79
2023/02/22 05:37:00;;;;;;;35.10;9.23;;;6.10;99.90;;;;;;5036698;28;20209;-78
2023/02/22 05:39:26;;;;;;;21.43;8.60;;;6.10;99.90;;;;;;5037364;28;20272;-79
2023/02/22 05:41:52;;;;;;;26.37;8.20;;;6.10;99.90;;;;;;5031340;28;20497;-77
2023/02/22 05:44:17;;;;;;;15.67;7.20;;;5.90;99.90;;;;;;5027989;28;20775;-76
2023/02/22 05:46:43;;;;;;;22.50;7.30;;;6.20;99.90;;;;;;5028347;28;20278;-77
2023/02/22 05:49:09;;;;;;;17.17;7.27;;;5.90;99.90;;;;;;5029424;28;20194;-76
2023/02/22 05:51:35;;;;;;;34.07;8.90;;;5.90;99.90;;;;;;5031229;28;20190;-78
2023/02/22 05:54:00;;;;;;;13.70;7.07;;;6.00;99.90;;;;;;5034719;28;20440;-77
2023/02/22 05:56:27;;;;;;;20.57;7.43;;;5.80;99.90;;;;;;5018398;28;20185;-79
2023/02/22 05:58:54;;;;;;;30.10;8.53;;;5.80;99.90;;;;;;5034988;28;20179;-79
2023/02/22 06:01:20;;;;;;;24.87;7.70;;;5.80;99.90;;;;;;5034975;28;20487;-79
2023/02/22 06:03:47;;;;;;;28.03;8.33;;;6.00;99.90;;;;;;5035677;28;20469;-79
2023/02/22 06:06:13;;;;;;;28.00;7.90;;;5.80;99.90;;;;;;5019038;28;20423;-77
2023/02/22 06:08:39;;;;;;;15.77;6.33;;;5.90;99.90;;;;;;5035451;28;20930;-79
2023/02/22 06:11:05;;;;;;;20.77;7.40;;;5.70;99.90;;;;;;5036256;28;20461;-78
2023/02/22 06:13:30;;;;;;;20.47;6.90;;;5.70;99.90;;;;;;5035311;28;20229;-79
2023/02/22 06:15:56;;;;;;;16.70;6.43;;;5.70;99.90;;;;;;5034770;28;20197;-78
2023/02/22 06:18:25;;;;;;;13.43;6.50;;;5.60;99.90;;;;;;5034666;28;20179;-79
2023/02/22 06:20:51;;;;;;;17.23;6.90;;;5.80;99.90;;;;;;5017917;28;20417;-79
2023/02/22 06:23:17;;;;;;;20.30;7.70;;;5.70;99.90;;;;;;5034590;28;20460;-79
2023/02/22 06:25:42;;;;;;;24.40;7.40;;;5.70;99.90;;;;;;5034231;28;20421;-79
2023/02/22 06:28:09;;;;;;;23.90;7.30;;;5.50;99.90;;;;;;5018351;28;20670;-79
2023/02/22 06:30:35;;;;;;;13.50;7.10;;;5.70;99.90;;;;;;5036801;28;20186;-78
2023/02/22 06:33:01;;;;;;;17.57;6.40;;;5.60;99.90;;;;;;5018452;28;20441;-78
2023/02/22 06:35:26;;;;;;;17.90;7.10;;;5.40;99.90;;;;;;5016822;28;20904;-78
2023/02/22 06:37:52;;;;;;;21.87;6.90;;;5.50;99.90;;;;;;5014604;28;20182;-77
2023/02/22 06:40:18;;;;;;;8.80;5.73;;;5.50;99.90;;;;;;5038652;28;20189;-77
2023/02/22 06:42:47;;;;;;;6.30;5.60;;;5.50;99.90;;;;;;5053988;28;20236;-78
2023/02/22 06:45:15;;;;;;;7.20;5.37;;;5.40;99.90;;;;;;5054792;28;20417;-78
2023/02/22 06:47:41;;;;;;;7.53;5.43;;;5.50;99.90;;;;;;5053128;28;20401;-78
2023/02/22 06:50:16;;;;;;;6.93;5.20;;;5.40;99.90;;;;;;5021969;28;20799;-78
2023/02/22 06:52:42;;;;;;;6.30;5.30;;;5.60;99.90;;;;;;5033670;28;20212;-77
2023/02/22 06:55:07;;;;;;;7.30;6.50;;;5.60;99.90;;;;;;5034749;28;20417;-78
2023/02/22 06:57:33;;;;;;;7.47;6.77;;;5.60;99.90;;;;;;5033965;28;20421;-78
2023/02/22 06:59:59;;;;;;;9.77;6.90;;;5.40;99.90;;;;;;5034169;28;20193;-78
2023/02/22 07:02:24;;;;;;;8.70;6.33;;;5.60;99.90;;;;;;5032474;28;20218;-78
2023/02/22 07:04:50;;;;;;;8.90;6.57;;;5.60;99.90;;;;;;5033713;28;20534;-78
2023/02/22 07:07:15;;;;;;;8.47;6.57;;;5.60;99.90;;;;;;5033993;28;20662;-79
2023/02/22 07:09:45;;;;;;;8.07;6.40;;;5.60;99.90;;;;;;5032576;28;20182;-79
2023/02/22 07:12:10;;;;;;;8.50;6.50;;;5.60;99.90;;;;;;5033773;28;20221;-78
2023/02/22 07:14:36;;;;;;;10.70;7.23;;;5.40;99.90;;;;;;5034296;28;20432;-79
2023/02/22 07:17:02;;;;;;;7.63;6.63;;;5.70;99.90;;;;;;5034735;28;20292;-79
2023/02/22 07:19:27;;;;;;;9.07;6.87;;;5.70;99.90;;;;;;5030840;28;20246;-78
2023/02/22 07:21:57;;;;;;;8.03;6.23;;;5.60;99.90;;;;;;5034849;28;20221;-79
2023/02/22 07:24:25;;;;;;;6.97;6.13;;;5.60;99.90;;;;;;5031823;28;20190;-78
2023/02/22 07:26:51;;;;;;;12.00;6.47;;;5.90;99.90;;;;;;5033956;28;20417;-79
2023/02/22 07:29:16;;;;;;;8.60;6.33;;;5.90;99.90;;;;;;5033983;28;20459;-79
2023/02/22 07:31:42;;;;;;;7.30;5.70;;;5.80;99.90;;;;;;5036801;28;20186;-78
2023/02/22 07:34:07;;;;;;;9.63;6.80;;;5.70;99.90;;;;;;5037196;28;20633;-79
2023/02/22 07:36:33;;;;;;;7.93;6.40;;;5.90;99.90;;;;;;5037472;28;20187;-79
2023/02/22 07:38:59;;;;;;;7.67;6.00;;;6.00;99.90;;;;;;5037635;28;20524;-79
2023/02/22 07:41:24;;;;;;;7.40;6.37;;;5.90;99.90;;;;;;5031236;28;20174;-79
2023/02/22 07:43:50;;;;;;;7.60;6.03;;;6.00;99.90;;;;;;5027850;28;20214;-77
2023/02/22 07:46:16;;;;;;;6.70;5.60;;;6.10;99.90;;;;;;5037774;28;20213;-78
2023/02/22 07:48:42;;;;;;;9.03;6.80;;;6.00;99.90;;;;;;5035644;28;20182;-79
2023/02/22 07:51:08;;;;;;;8.50;6.53;;;6.20;99.90;;;;;;5028242;28;20194;-79
2023/02/22 07:53:35;;;;;;;9.13;6.10;;;6.30;99.90;;;;;;5024418;28;20206;-77
2023/02/22 07:56:03;;;;;;;10.30;8.10;;;6.30;99.90;;;;;;5006896;28;20472;-79
2023/02/22 07:58:30;;;;;;;9.43;7.30;;;6.50;99.90;;;;;;5026097;28;20422;-79
2023/02/22 08:00:57;;;;;;;12.40;8.03;;;6.60;99.90;;;;;;5019851;28;20778;-78
2023/02/22 08:03:24;;;;;;;16.60;10.40;;;6.50;99.90;;;;;;5021457;28;20456;-78
2023/02/22 08:05:56;;;;;;;15.87;11.67;;;6.70;99.90;;;;;;5025978;28;20410;-79
2023/02/22 08:08:22;;;;;;;20.00;11.77;;;6.60;99.90;;;;;;5020103;28;20429;-78
2023/02/22 08:10:49;;;;;;;20.50;12.90;;;6.80;99.90;;;;;;5018463;28;20430;-79
2023/02/22 08:13:15;;;;;;;21.93;13.37;;;6.80;99.90;;;;;;5017145;28;21057;-77
2023/02/22 08:15:43;;;;;;;18.20;13.77;;;7.00;99.90;;;;;;5017791;28;20430;-79
2023/02/22 08:18:14;;;;;;;24.27;14.63;;;7.30;99.90;;;;;;5018076;28;20536;-78
2023/02/22 08:20:41;;;;;;;20.93;14.63;;;7.20;99.90;;;;;;5016079;28;20521;-77
2023/02/22 08:23:08;;;;;;;20.53;14.80;;;7.30;99.90;;;;;;5017176;28;20481;-79
2023/02/22 08:25:34;;;;;;;19.17;14.23;;;7.70;99.90;;;;;;5018360;28;20422;-79
2023/02/22 08:28:03;;;;;;;21.03;14.50;;;7.60;99.90;;;;;;5025131;28;20411;-79
2023/02/22 08:30:30;;;;;;;18.73;14.00;;;7.90;99.90;;;;;;5038012;28;20198;-79
2023/02/22 08:32:57;;;;;;;20.83;14.27;;;8.10;99.90;;;;;;5019741;28;20433;-78
2023/02/22 08:35:24;;;;;;;21.40;14.00;;;8.20;99.90;;;;;;5037350;28;20423;-78
2023/02/22 08:37:52;;;;;;;21.20;14.97;;;8.40;99.90;;;;;;5037083;28;20475;-78
2023/02/22 08:40:21;;;;;;;21.87;14.43;;;8.60;99.90;;;;;;5050142;28;20424;-79
2023/02/22 08:42:47;;;;;;;23.07;13.97;;;8.80;99.90;;;;;;5057322;28;20639;-79
2023/02/22 08:45:13;;;;;;;21.97;13.53;;;8.90;99.90;;;;;;5057107;28;20404;-79
2023/02/22 08:47:39;;;;;;;17.23;12.80;;;9.10;99.90;;;;;;5057235;28;20628;-79
2023/02/22 08:50:05;;;;;;;19.20;14.10;;;9.30;99.90;;;;;;5057432;28;20409;-78
2023/02/22 08:52:31;;;;;;;16.20;13.37;;;9.40;99.90;;;;;;5056346;28;20440;-80
2023/02/22 08:54:56;;;;;;;16.80;12.50;;;9.60;99.90;;;;;;5057561;28;20454;-79
2023/02/22 08:57:22;;;;;;;16.17;12.17;;;9.70;99.90;;;;;;5057470;28;20193;-78
2023/02/22 08:59:48;;;;;;;16.20;11.70;;;9.90;99.90;;;;;;5057198;28;20200;-79
2023/02/22 09:02:20;;;;;;;18.00;12.53;;;10.00;99.90;;;;;;5058225;28;20218;-79
2023/02/22 09:04:47;;;;;;;15.30;12.10;;;10.10;99.90;;;;;;5043205;28;20193;-80
2023/02/22 09:07:13;;;;;;;15.57;10.97;;;10.30;99.90;;;;;;5036417;28;20786;-79
2023/02/22 09:09:41;;;;;;;18.10;12.47;;;10.40;99.90;;;;;;5035958;28;20417;-79
2023/02/22 09:12:07;;;;;;;16.90;12.70;;;10.50;99.90;;;;;;5036538;28;20453;-79
2023/02/22 09:14:33;;;;;;;14.60;11.70;;;10.60;99.90;;;;;;5035911;28;20417;-79
2023/02/22 09:16:59;;;;;;;15.93;11.87;;;10.70;99.90;;;;;;5034507;28;20182;-79
2023/02/22 09:19:25;;;;;;;12.17;10.87;;;10.80;99.90;;;;;;5035071;28;20576;-79
2023/02/22 09:21:55;;;;;;;16.63;11.60;;;10.90;99.90;;;;;;5035045;28;20491;-80
2023/02/22 09:24:21;;;;;;;14.30;10.90;;;10.90;99.90;;;;;;5034832;28;20536;-80
2023/02/22 09:26:52;;;;;;;15.43;10.97;;;11.00;99.90;;;;;;5036006;28;20459;-79
2023/02/22 09:29:21;;;;;;;14.80;10.90;;;11.10;99.90;;;;;;5036237;28;20417;-77
2023/02/22 09:31:49;;;;;;;15.00;10.33;;;11.10;99.90;;;;;;5034355;28;20417;-79
2023/02/22 09:34:15;;;;;;;13.47;9.53;;;11.20;99.90;;;;;;5034046;28;20413;-78
2023/02/22 09:36:42;;;;;;;17.60;11.23;;;11.30;99.90;;;;;;5033435;28;20455;-79
2023/02/22 09:39:12;;;;;;;13.90;10.50;;;11.40;99.90;;;;;;5040073;28;20412;-79
2023/02/22 09:41:46;;;;;;;14.87;9.83;;;11.50;99.90;;;;;;5058061;28;20499;-79
2023/02/22 09:44:19;;;;;;;15.43;9.33;;;11.60;99.90;;;;;;5057118;28;20739;-78
2023/02/22 09:46:46;;;;;;;14.57;10.50;;;11.70;99.90;;;;;;5057720;28;20416;-77
2023/02/22 09:49:14;;;;;;;14.13;9.53;;;11.70;99.90;;;;;;5058946;28;20423;-79
2023/02/22 09:51:51;;;;;;;11.80;9.03;;;11.80;99.90;;;;;;5058851;28;20424;-79
2023/02/22 09:54:20;;;;;;;11.67;8.40;;;11.90;99.90;;;;;;5059183;28;20416;-77
2023/02/22 09:56:49;;;;;;;13.33;9.13;;;12.00;99.90;;;;;;5058427;28;20404;-78
2023/02/22 09:59:21;;;;;;;10.80;8.33;;;12.20;99.90;;;;;;5058615;28;20408;-79
2023/02/22 10:01:53;;;;;;;12.90;8.20;;;12.20;99.90;;;;;;5058614;28;20412;-80
2023/02/22 10:04:24;;;;;;;11.07;8.13;;;12.30;99.90;;;;;;5047602;28;20408;-79
2023/02/22 10:07:17;;;;;;;13.80;7.90;;;12.40;99.90;;;;;;5038127;28;20417;-78
2023/02/22 10:09:44;;;;;;;9.83;7.20;;;12.50;99.90;;;;;;5029023;28;20806;-78
2023/02/22 10:12:16;;;;;;;11.10;7.87;;;12.60;99.90;;;;;;5027658;28;20956;-78
2023/02/22 10:14:45;;;;;;;12.50;7.40;;;12.70;99.90;;;;;;5027870;28;20902;-78
2023/02/22 10:17:34;;;;;;;13.30;8.30;;;12.80;99.90;;;;;;5027648;28;20421;-78
2023/02/22 10:20:00;;;;;;;10.30;7.60;;;12.80;99.90;;;;;;5029133;28;20421;-78
2023/02/22 10:22:50;;;;;;;9.30;7.37;;;12.90;99.90;;;;;;5027750;28;20469;-78
2023/02/22 10:25:26;;;;;;;9.00;7.70;;;12.90;99.90;;;;;;5027642;28;20183;-78
2023/02/22 10:28:02;;;;;;;9.87;7.17;;;13.00;99.90;;;;;;5027552;28;20425;-79
2023/02/22 10:30:42;;;;;;;8.20;6.80;;;13.00;99.90;;;;;;5011188;28;20486;-78
2023/02/22 10:33:22;;;;;;;9.93;6.93;;;13.00;99.90;;;;;;5028727;28;20452;-78
2023/02/22 10:35:51;;;;;;;10.50;7.10;;;13.00;99.90;;;;;;5027810;28;20787;-77
2023/02/22 10:38:26;;;;;;;8.90;6.40;;;13.00;99.90;;;;;;5027163;28;20421;-77
2023/02/22 10:41:12;;;;;;;11.20;7.60;;;13.10;99.90;;;;;;5044620;28;20420;-77
2023/02/22 10:43:40;;;;;;;10.73;7.07;;;13.00;99.90;;;;;;5048063;28;20975;-77
2023/02/22 10:46:08;;;;;;;9.47;6.70;;;13.20;99.90;;;;;;5047562;28;20420;-77
2023/02/22 10:48:37;;;;;;;8.83;6.53;;;13.20;99.90;;;;;;5048408;28;20909;-77
2023/02/22 10:51:05;;;;;;;11.80;7.30;;;13.20;99.90;;;;;;5048462;28;20961;-78
2023/02/22 10:53:31;;;;;;;9.50;5.90;;;13.20;99.90;;;;;;5046946;28;20436;-78
2023/02/22 10:56:15;;;;;;;9.30;6.33;;;13.30;99.90;;;;;;5047315;28;20456;-78
2023/02/22 10:58:43;;;;;;;8.53;6.00;;;13.30;99.90;;;;;;5048457;28;20926;-78
2023/02/22 11:01:22;;;;;;;8.83;5.40;;;13.30;99.90;;;;;;5047203;28;20420;-78
2023/02/22 11:04:10;;;;;;;8.03;5.93;;;13.30;99.90;;;;;;5041857;28;20518;-78
2023/02/22 11:06:38;;;;;;;8.23;5.47;;;13.40;99.90;;;;;;5029823;28;20413;-78
2023/02/22 11:09:21;;;;;;;11.17;5.93;;;13.40;99.90;;;;;;5032382;28;20464;-78
2023/02/22 11:11:48;;;;;;;7.27;5.00;;;13.40;99.90;;;;;;5032318;28;20460;-79
2023/02/22 11:14:34;;;;;;;8.50;5.47;;;13.40;99.90;;;;;;5030738;28;20936;-78
2023/02/22 11:17:05;;;;;;;6.70;5.70;;;13.50;99.90;;;;;;5031814;28;20425;-78
2023/02/22 11:19:32;;;;;;;9.27;5.83;;;13.50;99.90;;;;;;5032212;28;20493;-78
2023/02/22 11:22:10;;;;;;;9.13;6.33;;;13.60;99.90;;;;;;5030772;28;20465;-78
2023/02/22 11:24:53;;;;;;;8.43;5.30;;;13.60;99.90;;;;;;5030824;28;20617;-78
2023/02/22 11:27:30;;;;;;;7.20;4.63;;;13.60;99.90;;;;;;5030763;28;20413;-79
2023/02/22 11:30:20;;;;;;;8.23;5.33;;;13.60;99.90;;;;;;5032296;28;20827;-78
2023/02/22 11:32:54;;;;;;;6.60;5.33;;;13.50;99.90;;;;;;5030713;28;20443;-77
2023/02/22 11:35:30;;;;;;;6.63;5.30;;;13.70;99.90;;;;;;5030685;28;20428;-77
2023/02/22 11:38:10;;;;;;;7.87;5.10;;;13.70;99.90;;;;;;5031708;28;20825;-78
2023/02/22 11:40:36;;;;;;;8.40;5.80;;;13.80;99.90;;;;;;5046970;28;20792;-78
2023/02/22 11:43:11;;;;;;;5.40;4.57;;;13.80;99.90;;;;;;5051400;28;20802;-77
2023/02/22 11:45:37;;;;;;;8.70;5.60;;;13.80;99.90;;;;;;5033018;28;20427;-78
2023/02/22 11:48:05;;;;;;;6.87;5.70;;;13.90;99.90;;;;;;5051525;28;20416;-78
2023/02/22 11:50:53;;;;;;;7.70;5.70;;;13.90;99.90;;;;;;5050426;28;20875;-78
2023/02/22 11:53:24;;;;;;;8.50;6.40;;;14.10;99.90;;;;;;5051234;28;20789;-78
2023/02/22 11:56:19;;;;;;;5.80;5.20;;;14.10;99.90;;;;;;5050290;28;20416;-78
2023/02/22 11:58:56;;;;;;;6.80;5.63;;;14.20;99.90;;;;;;5051334;28;20420;-78
2023/02/22 12:01:40;;;;;;;6.73;5.67;;;14.30;99.90;;;;;;5050165;28;20434;-79
2023/02/22 12:04:37;;;;;;;7.50;5.83;;;14.40;99.90;;;;;;5042415;28;20575;-78
2023/02/22 12:07:16;;;;;;;6.90;4.90;;;14.40;99.90;;;;;;5031185;28;20503;-78
2023/02/22 12:09:47;;;;;;;7.50;5.70;;;14.40;99.90;;;;;;5031242;28;20421;-78
2023/02/22 12:12:23;;;;;;;7.73;6.00;;;14.50;99.90;;;;;;5031171;28;20453;-78
2023/02/22 12:15:05;;;;;;;7.10;5.00;;;14.60;99.90;;;;;;5031251;28;20424;-78
2023/02/22 12:18:04;;;;;;;7.10;5.87;;;14.60;99.90;;;;;;5029679;28;20418;-78
2023/02/22 12:20:44;;;;;;;6.17;5.40;;;14.70;99.90;;;;;;5025455;28;20471;-78
2023/02/22 12:23:18;;;;;;;7.10;5.80;;;14.80;99.90;;;;;;5029483;28;20460;-78
2023/02/22 12:25:59;;;;;;;9.00;5.97;;;14.80;99.90;;;;;;5031163;28;20406;-78
2023/02/22 12:28:37;;;;;;;8.47;6.03;;;14.80;99.90;;;;;;5030984;28;20463;-78
2023/02/22 12:31:13;;;;;;;8.63;5.90;;;14.80;99.90;;;;;;5029472;28;20470;-78
2023/02/22 12:33:49;;;;;;;7.63;6.47;;;14.90;99.90;;;;;;5030943;28;20522;-78
2023/02/22 12:36:19;;;;;;;6.87;5.83;;;14.90;99.90;;;;;;5031188;28;20814;-78
2023/02/22 12:38:53;;;;;;;8.03;5.37;;;14.80;99.90;;;;;;5030774;28;20409;-78
2023/02/22 12:41:41;;;;;;;5.80;4.70;;;14.80;99.90;;;;;;5010802;28;20419;-78
2023/02/22 12:44:16;;;;;;;7.27;5.03;;;14.90;99.90;;;;;;5009642;28;20417;-79
2023/02/22 12:46:46;;;;;;;6.87;5.57;;;14.90;99.90;;;;;;5009460;28;20821;-79
2023/02/22 12:49:39;;;;;;;5.80;5.20;;;14.90;99.90;;;;;;5009844;28;20437;-79
2023/02/22 12:52:36;;;;;;;6.00;5.10;;;14.90;99.90;;;;;;4993238;28;20442;-78
2023/02/22 12:55:30;;;;;;;7.13;4.90;;;15.00;99.90;;;;;;5009324;28;20415;-78
2023/02/22 12:58:08;;;;;;;6.60;4.90;;;15.00;99.90;;;;;;5010947;28;21004;-78